Terminal Aerodrome Forecast
Issued by NWS Louisville, KY

Home | Current Version | Previous Version | Text Only | Print | Product List | Glossary On
Versions: 1 2 3 4 5 6 7 8 9 10 11 12 13 14 15 16 17
000
FTUS43 KLMK 192320
TAFSDF
TAF
KSDF 192320Z 2000/2106 19005KT P6SM SCT025 BKN090
     FM200900 VRB03KT 4SM BR FEW030 SCT250
      TEMPO 2009/2012 2SM BR
     FM201400 21005KT P6SM SCT040 SCT250=

USA.gov is the U.S. government's official web portal to all federal, state and local government web resources and services.